createdAt,value
2019-06-15T00:00:57.794Z,99296.39
2019-06-15T00:03:28.197Z,99286.60
2019-06-15T00:05:58.375Z,99285.78
2019-06-15T00:08:28.601Z,99295.20
2019-06-15T00:10:58.798Z,99295.06
2019-06-15T00:13:29.010Z,99284.99
2019-06-15T00:15:59.203Z,99279.79
2019-06-15T00:18:29.417Z,99274.80
2019-06-15T00:21:00.691Z,99278.16
2019-06-15T00:23:30.989Z,99267.97
2019-06-15T00:26:01.250Z,99261.77
2019-06-15T00:28:31.462Z,99266.75
2019-06-15T00:31:01.678Z,99265.91
2019-06-15T00:33:31.970Z,99265.55
2019-06-15T00:36:02.248Z,99268.35
2019-06-15T00:38:32.481Z,99266.34
2019-06-15T00:41:02.687Z,99262.74
2019-06-15T00:43:33.157Z,99259.77
2019-06-15T00:46:03.642Z,99250.98
2019-06-15T00:48:33.852Z,99249.16
2019-06-15T00:51:04.064Z,99253.47
2019-06-15T00:53:34.251Z,99251.44
2019-06-15T00:56:04.477Z,99250.59
2019-06-15T00:58:34.666Z,99256.15
2019-06-15T01:01:04.961Z,99260.48
2019-06-15T01:03:35.157Z,99259.42
2019-06-15T01:06:05.368Z,99269.13
2019-06-15T01:08:35.559Z,99273.22
2019-06-15T01:11:05.774Z,99268.53
2019-06-15T01:13:35.969Z,99275.84
2019-06-15T01:16:06.183Z,99277.61
2019-06-15T01:18:36.386Z,99269.17
2019-06-15T01:21:06.602Z,99269.70
2019-06-15T01:23:36.791Z,99269.58
2019-06-15T01:26:07.077Z,99261.41
2019-06-15T01:28:37.279Z,99260.10
2019-06-15T01:31:07.492Z,99250.81
2019-06-15T01:33:37.743Z,99242.83
2019-06-15T01:36:07.964Z,99234.39
2019-06-15T01:38:38.162Z,99222.47
2019-06-15T01:41:08.395Z,99220.95
2019-06-15T01:43:38.593Z,99220.05
2019-06-15T01:46:08.802Z,99209.12
2019-06-15T01:48:39.000Z,99203.58
2019-06-15T01:51:09.241Z,99204.64
2019-06-15T01:53:39.422Z,99207.04
2019-06-15T01:56:09.622Z,99197.11
2019-06-15T01:58:39.815Z,99191.23
2019-06-15T02:01:10.056Z,99198.70
2019-06-15T02:03:40.312Z,99207.45
2019-06-15T02:06:11.521Z,99208.82
2019-06-15T02:08:41.769Z,99206.84
2019-06-15T02:11:11.984Z,99210.05
2019-06-15T02:13:42.185Z,99207.64
2019-06-15T02:16:12.478Z,99207.95
2019-06-15T02:18:42.679Z,99207.37
2019-06-15T02:21:12.898Z,99204.28
2019-06-15T02:23:43.173Z,99199.82
2019-06-15T02:26:13.400Z,99199.17
2019-06-15T02:28:43.594Z,99188.11
2019-06-15T02:31:13.872Z,99188.80
2019-06-15T02:33:44.163Z,99188.20
2019-06-15T02:36:14.372Z,99183.94
2019-06-15T02:38:44.673Z,99188.77
2019-06-15T02:41:14.859Z,99186.88
2019-06-15T02:43:45.077Z,99192.66
2019-06-15T02:46:15.286Z,99191.69
2019-06-15T02:48:45.500Z,99195.97
2019-06-15T02:51:16.681Z,99196.01
2019-06-15T02:53:46.887Z,99202.08
2019-06-15T02:56:17.087Z,99209.86
2019-06-15T02:58:47.311Z,99212.66
2019-06-15T03:01:17.511Z,99211.31
2019-06-15T03:03:47.722Z,99230.71
2019-06-15T03:06:17.984Z,99224.09
2019-06-15T03:08:48.193Z,99225.02
2019-06-15T03:11:18.391Z,99229.24
2019-06-15T03:13:48.604Z,99235.80
2019-06-15T03:16:18.798Z,99249.19
2019-06-15T03:18:49.012Z,99255.33
2019-06-15T03:21:19.210Z,99254.69
2019-06-15T03:23:49.429Z,99259.13
2019-06-15T03:26:19.629Z,99273.64
2019-06-15T03:28:49.911Z,99289.39
2019-06-15T03:31:20.114Z,99291.96
2019-06-15T03:33:50.320Z,99308.02
2019-06-15T03:36:20.575Z,99321.73
2019-06-15T03:38:50.862Z,99324.16
2019-06-15T03:41:21.107Z,99336.23
2019-06-15T03:43:51.332Z,99344.07
2019-06-15T03:46:21.580Z,99362.80
2019-06-15T03:48:51.804Z,99357.20
2019-06-15T03:51:22.069Z,99368.72
2019-06-15T03:53:52.276Z,99376.92
2019-06-15T03:56:22.482Z,99384.09
2019-06-15T03:58:52.775Z,99405.09
2019-06-15T04:01:30.568Z,99419.48
2019-06-15T04:04:00.782Z,99424.52
2019-06-15T04:06:31.002Z,99442.07
2019-06-15T04:09:01.224Z,99467.95
2019-06-15T04:11:33.183Z,99470.62
2019-06-15T04:14:03.546Z,99474.03
2019-06-15T04:16:35.207Z,99482.09
2019-06-15T04:19:06.015Z,99482.34
2019-06-15T04:21:36.205Z,99467.91
2019-06-15T04:24:06.436Z,99450.54
2019-06-15T04:26:36.723Z,99458.67
2019-06-15T04:29:07.511Z,99449.72
2019-06-15T04:31:39.957Z,99437.06
2019-06-15T04:34:10.579Z,99438.02
2019-06-15T04:36:40.802Z,99448.75
2019-06-15T04:39:10.987Z,99450.77
2019-06-15T04:41:41.203Z,99453.91
2019-06-15T04:44:11.408Z,99455.72
2019-06-15T04:46:41.633Z,99443.77
2019-06-15T04:49:11.827Z,99453.39
2019-06-15T04:51:42.041Z,99456.38
2019-06-15T04:54:12.228Z,99454.73
2019-06-15T04:56:50.597Z,99450.17
2019-06-15T04:59:14.333Z,99448.14
2019-06-15T05:01:44.571Z,99461.91
2019-06-15T05:04:14.757Z,99474.17
2019-06-15T05:06:44.978Z,99467.28
2019-06-15T05:09:15.177Z,99470.48
2019-06-15T05:11:45.411Z,99480.83
2019-06-15T05:14:15.616Z,99479.25
2019-06-15T05:16:45.844Z,99493.83
2019-06-15T05:19:16.075Z,99500.98
2019-06-15T05:21:47.348Z,99504.27
2019-06-15T05:24:17.570Z,99525.55
2019-06-15T05:26:47.786Z,99517.84
2019-06-15T05:29:17.982Z,99519.73
2019-06-15T05:31:48.220Z,99517.77
2019-06-15T05:34:18.422Z,99514.09
2019-06-15T05:36:48.632Z,99522.58
2019-06-15T05:39:18.830Z,99529.66
2019-06-15T05:41:49.057Z,99543.36
2019-06-15T05:44:19.273Z,99544.67
2019-06-15T05:46:49.482Z,99546.72
2019-06-15T05:49:19.745Z,99554.44
2019-06-15T05:51:50.070Z,99559.37
2019-06-15T05:54:20.318Z,99553.82
2019-06-15T05:56:50.545Z,99558.14
2019-06-15T05:59:20.886Z,99564.17
2019-06-15T06:01:51.125Z,99570.66
2019-06-15T06:04:21.391Z,99573.28
2019-06-15T06:06:51.741Z,99578.38
2019-06-15T06:09:21.953Z,99582.55
2019-06-15T06:11:52.193Z,99581.13
2019-06-15T06:14:22.376Z,99582.42
2019-06-15T06:16:52.644Z,99589.87
2019-06-15T06:19:22.881Z,99594.38
2019-06-15T06:21:54.101Z,99606.69
2019-06-15T06:24:24.279Z,99611.24
2019-06-15T06:26:54.556Z,99613.48
2019-06-15T06:29:24.803Z,99638.24
2019-06-15T06:31:55.032Z,99621.30
2019-06-15T06:34:25.728Z,99628.75
2019-06-15T06:36:55.979Z,99636.25
2019-06-15T06:39:26.232Z,99637.38
2019-06-15T06:41:56.460Z,99639.39
2019-06-15T06:44:26.652Z,99640.10
2019-06-15T06:46:56.906Z,99647.09
2019-06-15T06:49:27.117Z,99653.51
2019-06-15T06:51:57.358Z,99657.30
2019-06-15T06:54:27.550Z,99659.25
2019-06-15T06:56:57.773Z,99659.88
2019-06-15T06:59:27.977Z,99665.59
2019-06-15T07:01:58.336Z,99667.59
2019-06-15T07:04:28.598Z,99672.94
2019-06-15T07:06:58.935Z,99681.80
2019-06-15T07:09:29.256Z,99684.53
2019-06-15T07:11:59.542Z,99682.77
2019-06-15T07:14:29.770Z,99675.92
2019-06-15T07:16:59.995Z,99679.47
2019-06-15T07:19:30.212Z,99685.78
2019-06-15T07:22:00.483Z,99695.63
2019-06-15T07:24:30.815Z,99696.33
2019-06-15T07:27:01.038Z,99704.41
2019-06-15T07:29:31.260Z,99703.52
2019-06-15T07:32:01.484Z,99711.17
2019-06-15T07:34:31.685Z,99719.00
2019-06-15T07:37:01.940Z,99717.86
2019-06-15T07:39:33.258Z,99721.27
2019-06-15T07:42:03.636Z,99721.93
2019-06-15T07:44:33.932Z,99728.08
2019-06-15T07:47:04.206Z,99734.16
2019-06-15T07:49:34.420Z,99739.07
2019-06-15T07:52:04.690Z,99739.24
2019-06-15T07:54:36.265Z,99745.04
2019-06-15T07:57:06.574Z,99753.81
2019-06-15T07:59:36.877Z,99757.03
2019-06-15T08:02:07.152Z,99751.67
2019-06-15T08:04:37.374Z,99742.02
2019-06-15T08:07:07.579Z,99745.38
2019-06-15T08:09:37.801Z,99753.00
2019-06-15T08:12:07.980Z,99754.19
2019-06-15T08:14:38.201Z,99764.80
2019-06-15T08:17:08.451Z,99764.55
2019-06-15T08:19:38.683Z,99773.14
2019-06-15T08:22:08.885Z,99781.19
2019-06-15T08:24:39.093Z,99789.23
2019-06-15T08:27:09.360Z,99795.75
2019-06-15T08:29:39.595Z,99794.18
2019-06-15T08:32:09.992Z,99798.73
2019-06-15T08:34:40.296Z,99802.15
2019-06-15T08:37:10.593Z,99802.81
2019-06-15T08:39:40.794Z,99804.05
2019-06-15T08:42:10.987Z,99805.09
2019-06-15T08:44:41.287Z,99810.52
2019-06-15T08:47:14.434Z,99812.06
2019-06-15T08:49:44.653Z,99817.89
2019-06-15T08:52:14.850Z,99822.25
2019-06-15T08:54:45.074Z,99823.02
2019-06-15T08:57:15.268Z,99828.55
2019-06-15T08:59:45.554Z,99836.29
2019-06-15T09:02:15.849Z,99832.63
2019-06-15T09:04:46.167Z,99836.82
2019-06-15T09:07:16.398Z,99844.88
2019-06-15T09:09:46.670Z,99843.80
2019-06-15T09:12:16.891Z,99851.81
2019-06-15T09:14:47.096Z,99843.13
2019-06-15T09:17:17.342Z,99843.92
2019-06-15T09:19:47.609Z,99846.09
2019-06-15T09:22:17.842Z,99842.59
2019-06-15T09:24:48.027Z,99833.48
2019-06-15T09:30:14.935Z,99846.63
2019-06-15T09:32:45.137Z,99850.45
2019-06-15T09:35:15.421Z,99845.89
2019-06-15T09:37:45.687Z,99848.02
2019-06-15T09:40:15.921Z,99849.30
2019-06-15T09:42:46.122Z,99859.91
2019-06-15T09:45:16.346Z,99855.87
2019-06-15T09:47:46.667Z,99858.52
2019-06-15T09:50:17.155Z,99865.09
2019-06-15T09:52:47.409Z,99861.88
2019-06-15T09:55:17.687Z,99858.86
2019-06-15T09:57:48.041Z,99868.03
2019-06-15T10:00:18.903Z,99865.12
2019-06-15T10:02:49.260Z,99864.22
2019-06-15T10:05:19.522Z,99874.59
2019-06-15T10:07:50.736Z,99873.86
2019-06-15T10:10:20.931Z,99875.23
2019-06-15T10:12:51.154Z,99879.78
2019-06-15T10:15:21.820Z,99875.47
2019-06-15T10:17:52.102Z,99874.67
2019-06-15T10:20:22.365Z,99885.84
2019-06-15T10:22:52.581Z,99885.45
2019-06-15T10:25:22.942Z,99881.84
2019-06-15T10:27:53.169Z,99894.63
2019-06-15T10:30:23.357Z,99891.66
2019-06-15T10:32:53.573Z,99899.36
2019-06-15T10:35:23.918Z,99891.51
2019-06-15T10:37:54.141Z,99902.27
2019-06-15T10:40:24.347Z,99909.27
2019-06-15T10:42:54.648Z,99906.48
2019-06-15T10:45:24.863Z,99909.02
2019-06-15T10:47:55.234Z,99915.94
2019-06-15T10:50:25.476Z,99908.39
2019-06-15T10:52:55.717Z,99916.39
2019-06-15T10:55:25.914Z,99910.30
2019-06-15T10:57:56.228Z,99914.08
2019-06-15T11:00:26.417Z,99916.98
2019-06-15T11:02:56.652Z,99917.55
2019-06-15T11:05:26.836Z,99914.34
2019-06-15T11:07:57.080Z,99916.89
2019-06-15T11:10:44.447Z,99910.02
2019-06-15T11:13:14.670Z,99910.81
2019-06-15T11:15:45.848Z,99920.55
2019-06-15T11:18:16.062Z,99923.83
2019-06-15T11:20:47.465Z,99923.98
2019-06-15T11:23:18.821Z,99919.38
2019-06-15T11:25:50.276Z,99923.51
2019-06-15T11:28:20.551Z,99918.39
2019-06-15T11:30:50.747Z,99917.66
2019-06-15T11:33:20.975Z,99922.34
2019-06-15T11:35:51.167Z,99925.84
2019-06-15T11:38:21.387Z,99921.67
2019-06-15T11:40:51.606Z,99921.50
2019-06-15T11:43:21.804Z,99917.48
2019-06-15T11:45:52.055Z,99927.97
2019-06-15T11:48:22.329Z,99926.41
2019-06-15T11:50:52.557Z,99924.91
2019-06-15T11:53:22.745Z,99927.91
2019-06-15T11:55:52.978Z,99921.05
2019-06-15T11:58:23.428Z,99923.72
2019-06-15T12:00:53.635Z,99924.28
2019-06-15T12:03:23.827Z,99922.33
2019-06-15T12:05:54.058Z,99925.75
2019-06-15T12:08:24.261Z,99932.87
2019-06-15T12:10:54.637Z,99935.18
2019-06-15T12:13:24.904Z,99934.71
2019-06-15T12:15:55.116Z,99935.77
2019-06-15T12:18:25.325Z,99930.25
2019-06-15T12:20:55.617Z,99927.90
2019-06-15T12:23:25.883Z,99936.09
2019-06-15T12:25:56.172Z,99934.94
2019-06-15T12:28:26.360Z,99934.88
2019-06-15T12:30:56.676Z,99933.13
2019-06-15T12:33:26.879Z,99935.22
2019-06-15T12:35:57.121Z,99927.20
2019-06-15T12:38:27.927Z,99929.30
2019-06-15T12:40:58.209Z,99930.13
2019-06-15T12:43:28.419Z,99920.19
2019-06-15T12:45:58.640Z,99916.56
2019-06-15T12:48:28.853Z,99910.41
2019-06-15T12:51:00.288Z,99915.33
2019-06-15T12:53:30.724Z,99913.22
2019-06-15T12:56:00.944Z,99914.80
2019-06-15T12:58:33.866Z,99910.72
2019-06-15T13:01:04.073Z,99917.89
2019-06-15T13:03:34.261Z,99914.53
2019-06-15T13:06:04.631Z,99915.42
2019-06-15T13:08:34.888Z,99914.64
2019-06-15T13:11:05.110Z,99917.20
2019-06-15T13:13:35.411Z,99921.70
2019-06-15T13:16:05.977Z,99919.73
2019-06-15T13:18:36.250Z,99916.03
2019-06-15T13:21:06.540Z,99919.18
2019-06-15T13:23:36.798Z,99916.21
2019-06-15T13:26:07.083Z,99917.17
2019-06-15T13:28:37.699Z,99920.11
2019-06-15T13:31:17.814Z,99916.23
2019-06-15T13:33:39.847Z,99914.00
2019-06-15T13:36:12.438Z,99917.45
2019-06-15T13:38:41.984Z,99919.25
2019-06-15T13:41:12.323Z,99910.89
2019-06-15T13:43:42.547Z,99912.31
2019-06-15T13:46:12.772Z,99911.19
2019-06-15T13:48:42.978Z,99914.81
2019-06-15T13:51:13.185Z,99919.74
2019-06-15T13:53:43.392Z,99922.27
2019-06-15T13:56:13.585Z,99919.90
2019-06-15T13:58:43.797Z,99913.31
2019-06-15T14:01:13.993Z,99916.42
2019-06-15T14:03:44.209Z,99915.41
2019-06-15T14:06:14.410Z,99914.05
2019-06-15T14:08:44.669Z,99917.78
2019-06-15T14:11:15.881Z,99921.00
2019-06-15T14:13:46.102Z,99916.60
2019-06-15T14:16:16.307Z,99920.05
2019-06-15T14:18:46.533Z,99907.93
2019-06-15T14:21:16.728Z,99910.39
2019-06-15T14:23:46.965Z,99909.27
2019-06-15T14:26:17.167Z,99910.36
2019-06-15T14:28:47.404Z,99907.48
2019-06-15T14:31:17.734Z,99908.95
2019-06-15T14:33:48.150Z,99902.41
2019-06-15T14:36:18.418Z,99903.56
2019-06-15T14:38:48.787Z,99904.91
2019-06-15T14:41:18.974Z,99893.26
2019-06-15T14:43:49.222Z,99890.09
2019-06-15T14:46:19.421Z,99903.50
2019-06-15T14:48:49.643Z,99904.70
2019-06-15T14:51:19.865Z,99906.64
2019-06-15T14:53:55.524Z,99901.30
2019-06-15T14:56:22.053Z,99903.81
2019-06-15T14:58:52.273Z,99900.91
2019-06-15T15:01:22.530Z,99898.51
2019-06-15T15:03:53.721Z,99901.02
2019-06-15T15:06:25.977Z,99901.41
2019-06-15T15:08:56.231Z,99898.98
2019-06-15T15:11:26.626Z,99897.62
2019-06-15T15:13:57.884Z,99893.82
2019-06-15T15:16:29.056Z,99889.84
2019-06-15T15:18:59.291Z,99890.25
2019-06-15T15:21:29.492Z,99889.45
2019-06-15T15:23:59.781Z,99889.96
2019-06-15T15:26:29.999Z,99886.58
2019-06-15T15:29:00.209Z,99885.33
2019-06-15T15:31:30.512Z,99883.12
2019-06-15T15:34:03.990Z,99883.77
2019-06-15T15:36:32.635Z,99881.97
2019-06-15T15:39:02.834Z,99871.30
2019-06-15T15:41:34.993Z,99867.56
2019-06-15T15:44:05.191Z,99867.28
2019-06-15T15:46:36.259Z,99863.84
2019-06-15T15:49:07.025Z,99862.03
2019-06-15T15:51:37.319Z,99861.30
2019-06-15T15:54:07.513Z,99861.91
2019-06-15T15:56:37.807Z,99856.92
2019-06-15T15:59:07.992Z,99854.08
2019-06-15T16:01:38.211Z,99846.82
2019-06-15T16:04:08.408Z,99853.68
2019-06-15T16:06:38.626Z,99849.23
2019-06-15T16:09:09.883Z,99854.55
2019-06-15T16:11:40.173Z,99847.59
2019-06-15T16:14:11.343Z,99859.92
2019-06-15T16:16:41.611Z,99863.83
2019-06-15T16:19:11.786Z,99860.28
2019-06-15T16:21:42.051Z,99861.84
2019-06-15T16:24:12.245Z,99863.22
2019-06-15T16:26:42.478Z,99866.89
2019-06-15T16:29:12.660Z,99863.87
2019-06-15T16:31:42.901Z,99863.08
2019-06-15T16:34:13.085Z,99856.11
2019-06-15T16:36:43.297Z,99857.44
2019-06-15T16:39:13.499Z,99850.23
2019-06-15T16:41:43.797Z,99839.33
2019-06-15T16:44:17.231Z,99842.45
2019-06-15T16:46:46.881Z,99837.30
2019-06-15T16:49:20.640Z,99842.27
2019-06-15T16:51:49.096Z,99837.64
2019-06-15T16:54:19.319Z,99831.69
2019-06-15T16:56:49.684Z,99826.30
2019-06-15T16:59:19.877Z,99829.24
2019-06-15T17:01:50.181Z,99827.31
2019-06-15T17:04:20.377Z,99830.49
2019-06-15T17:06:50.634Z,99831.89
2019-06-15T17:09:20.848Z,99837.21
2019-06-15T17:11:51.073Z,99840.73
2019-06-15T17:14:21.261Z,99849.24
2019-06-15T17:16:51.506Z,99847.90
2019-06-15T17:19:21.708Z,99854.34
2019-06-15T17:21:52.073Z,99859.62
2019-06-15T17:24:22.282Z,99863.43
2019-06-15T17:26:52.505Z,99861.09
2019-06-15T17:29:22.712Z,99869.55
2019-06-15T17:31:52.941Z,99871.58
2019-06-15T17:34:23.134Z,99874.66
2019-06-15T17:36:53.354Z,99879.25
2019-06-15T17:39:28.716Z,99874.30
2019-06-15T17:41:56.110Z,99871.24
2019-06-15T17:44:27.346Z,99874.30
2019-06-15T17:46:57.558Z,99870.36
2019-06-15T17:49:27.779Z,99873.08
2019-06-15T17:51:57.973Z,99871.79
2019-06-15T17:54:28.245Z,99874.69
2019-06-15T17:56:58.567Z,99869.98
2019-06-15T17:59:28.933Z,99862.03
2019-06-15T18:01:59.121Z,99865.34
2019-06-15T18:04:29.340Z,99861.03
2019-06-15T18:06:59.550Z,99860.83
2019-06-15T18:09:29.776Z,99862.51
2019-06-15T18:11:59.977Z,99861.58
2019-06-15T18:14:30.198Z,99852.97
2019-06-15T18:17:00.404Z,99856.20
2019-06-15T18:19:30.613Z,99866.43
2019-06-15T18:22:00.816Z,99862.88
2019-06-15T18:24:31.039Z,99854.25
2019-06-15T18:27:01.235Z,99852.14
2019-06-15T18:29:31.452Z,99855.23
2019-06-15T18:32:01.746Z,99856.45
2019-06-15T18:34:32.034Z,99857.84
2019-06-15T18:37:02.306Z,99856.09
2019-06-15T18:39:32.540Z,99862.78
2019-06-15T18:42:02.748Z,99866.98
2019-06-15T18:44:32.981Z,99866.86
2019-06-15T18:47:03.196Z,99864.68
2019-06-15T18:49:33.426Z,99862.88
2019-06-15T18:52:06.059Z,99871.66
2019-06-15T18:54:36.322Z,99873.20
2019-06-15T18:57:07.383Z,99881.80
2019-06-15T18:59:37.791Z,99886.00
2019-06-15T19:02:07.995Z,99887.76
2019-06-15T19:04:38.248Z,99891.03
2019-06-15T19:07:08.483Z,99884.38
2019-06-15T19:09:38.692Z,99887.02
2019-06-15T19:12:08.900Z,99883.41
2019-06-15T19:14:39.165Z,99892.88
2019-06-15T19:17:09.384Z,99887.56
2019-06-15T19:19:39.600Z,99889.84
2019-06-15T19:22:09.795Z,99892.93
2019-06-15T19:24:39.998Z,99888.06
2019-06-15T19:27:10.222Z,99879.60
2019-06-15T19:29:40.412Z,99884.36
2019-06-15T19:32:11.725Z,99892.85
2019-06-15T19:34:47.348Z,99899.03
2019-06-15T19:37:13.920Z,99902.60
2019-06-15T19:39:46.255Z,99906.80
2019-06-15T19:42:16.037Z,99905.95
2019-06-15T19:44:46.222Z,99903.22
2019-06-15T19:47:16.451Z,99904.13
2019-06-15T19:49:46.778Z,99905.27
2019-06-15T19:52:17.072Z,99916.28
2019-06-15T19:54:47.368Z,99905.03
2019-06-15T19:57:17.578Z,99912.19
2019-06-15T19:59:47.777Z,99916.87
2019-06-15T20:02:18.002Z,99920.50
2019-06-15T20:04:59.665Z,99913.03
2019-06-15T20:07:20.141Z,99911.48
2019-06-15T20:09:50.334Z,99924.26
2019-06-15T20:12:22.004Z,99939.88
2019-06-15T20:14:52.332Z,99953.67
2019-06-15T20:17:22.556Z,99954.17
2019-06-15T20:19:52.758Z,99958.50
2019-06-15T20:22:22.976Z,99957.50
2019-06-15T20:24:53.178Z,99955.80
2019-06-15T20:27:23.401Z,99961.02
2019-06-15T20:29:56.313Z,99964.11
2019-06-15T20:32:26.260Z,99952.77
2019-06-15T20:35:12.818Z,99948.75
2019-06-15T20:37:29.501Z,99962.74
2019-06-15T20:39:59.691Z,99961.50
2019-06-15T20:42:29.920Z,99961.72
2019-06-15T20:45:00.129Z,99961.29
2019-06-15T20:47:30.339Z,99961.95
2019-06-15T20:50:00.527Z,99962.18
2019-06-15T20:52:30.816Z,99963.63
2019-06-15T20:55:01.025Z,99974.14
2019-06-15T20:57:31.422Z,99977.31
2019-06-15T21:00:01.660Z,99981.19
2019-06-15T21:02:36.033Z,99988.19
2019-06-15T21:05:08.165Z,99987.95
2019-06-15T21:07:38.421Z,99996.83
2019-06-15T21:10:08.827Z,100004.94
2019-06-15T21:12:39.031Z,100015.81
2019-06-15T21:15:09.354Z,100021.81
2019-06-15T21:17:39.543Z,100025.23
2019-06-15T21:20:09.804Z,100032.90
2019-06-15T21:22:39.992Z,100038.10
2019-06-15T21:25:10.843Z,100037.50
2019-06-15T21:27:41.109Z,100037.23
2019-06-15T21:30:11.738Z,100051.20
2019-06-15T21:32:41.987Z,100051.34
2019-06-15T21:35:12.204Z,100056.11
2019-06-15T21:37:42.417Z,100052.54
2019-06-15T21:40:15.379Z,100054.30
2019-06-15T21:42:46.744Z,100055.23
2019-06-15T21:45:16.478Z,100048.77
2019-06-15T21:47:46.675Z,100044.34
2019-06-15T21:50:16.905Z,100047.17
2019-06-15T21:52:47.110Z,100045.41
2019-06-15T21:55:17.335Z,100048.02
2019-06-15T21:57:47.606Z,100060.63
2019-06-15T22:00:22.296Z,100072.97
2019-06-15T22:02:54.113Z,100081.28
2019-06-15T22:05:26.169Z,100080.39
2019-06-15T22:07:56.746Z,100088.56
2019-06-15T22:10:27.138Z,100094.08
2019-06-15T22:12:57.441Z,100099.65
2019-06-15T22:15:27.745Z,100102.13
2019-06-15T22:17:57.951Z,100107.14
2019-06-15T22:20:28.193Z,100110.72
2019-06-15T22:22:58.394Z,100107.84
2019-06-15T22:25:28.629Z,100107.41
2019-06-15T22:27:59.277Z,100111.84
2019-06-15T22:30:29.513Z,100111.64
2019-06-15T22:32:59.745Z,100116.75
2019-06-15T22:35:30.047Z,100118.47
2019-06-15T22:38:00.255Z,100123.39
2019-06-15T22:40:30.479Z,100122.52
2019-06-15T22:43:00.712Z,100128.13
2019-06-15T22:45:30.897Z,100137.94
2019-06-15T22:48:02.766Z,100137.51
2019-06-15T22:50:32.974Z,100136.67
2019-06-15T22:53:04.687Z,100140.19
2019-06-15T22:55:36.979Z,100144.08
2019-06-15T22:58:07.042Z,100143.48
2019-06-15T23:00:37.691Z,100145.09
2019-06-15T23:03:08.018Z,100146.69
2019-06-15T23:05:38.225Z,100150.75
2019-06-15T23:08:08.445Z,100157.52
2019-06-15T23:10:38.686Z,100158.62
2019-06-15T23:13:08.914Z,100160.70
2019-06-15T23:15:39.126Z,100150.73
2019-06-15T23:18:09.478Z,100156.52
2019-06-15T23:20:39.710Z,100155.23
2019-06-15T23:23:09.934Z,100157.42
2019-06-15T23:25:40.516Z,100160.82
2019-06-15T23:28:10.742Z,100163.70
2019-06-15T23:30:41.040Z,100157.25
2019-06-15T23:33:11.270Z,100163.20
2019-06-15T23:35:43.118Z,100158.84
2019-06-15T23:38:15.878Z,100159.61
2019-06-15T23:40:46.673Z,100157.99
2019-06-15T23:43:17.006Z,100156.08
2019-06-15T23:45:47.198Z,100153.52
2019-06-15T23:48:17.420Z,100155.48
2019-06-15T23:50:47.629Z,100156.76
2019-06-15T23:53:17.863Z,100157.41
2019-06-15T23:55:48.636Z,100155.08
2019-06-15T23:58:18.948Z,100153.86
